Astoria, OR

6:25 PM PST on January 18, 2017 (GMT -0800)
Astoria | | Change Station

Elev 236 ft 46.18 °N, 123.83 °W | Updated 7 seconds ago

Rain
Rain
48.5 °F
Feels Like 48 °F
N
0.0
Wind Variable Wind from South

Today
High -- | Low -- °F
--% Chance of Precip.
Yesterday
High -- | Low -- °F
Precip. -- in
Pressure 29.23 in
Visibility 4.0 miles
Clouds Scattered Clouds 700 ft
Scattered Clouds 2000 ft
Overcast 3600 ft
Windchill 48 °F
Dew Point 45 °F
Humidity 88%
Rainfall 1.11 in
Snow Depth Not available.
7:51 AM 5:00 PM
Waning Gibbous, 58% visible
SPECI KAST 190205Z AUTO 24007KT 4SM -RA BR SCT007 SCT020 OVC036 10/08 A2923 RMK AO2 CIG 027 RWY 08 P0003 T01000078
Pressure 29.23 in
Visibility 4.0 miles
Clouds Scattered Clouds 700 ft
Scattered Clouds 2000 ft
Overcast 3600 ft
Windchill 48 °F
Dew Point 45 °F
Humidity 88%
Rainfall 1.11 in
Snow Depth Not available.
7:51 AM 5:00 PM
Waning Gibbous, 58% visible
SPECI KAST 190205Z AUTO 24007KT 4SM -RA BR SCT007 SCT020 OVC036 10/08 A2923 RMK AO2 CIG 027 RWY 08 P0003 T01000078

Get Your Daily Forecast Email!

Thanks for signing up!

Be on the lookout for a verification email in your inbox.

You'll start receiving the daily forecast at 8 AM.

×

10-Day Weather Forecast

Almanac

Astronomy

Jan. 18, 2017 Rise Set
Actual Time
Civil Twilight
Nautical Twilight
Astronomical Twilight
Moon
Length of Visible Light
Length of Day
Tomorrow will be .
, % of the Moon is Illuminated

Today's Extremes

State Highs State Lows

Community

WunderPhotos

Upload Photos

1,962,540 photos uploaded!

WunderBlog® & News

Nearby

Air Quality

  Air Quality AQ Index Pollutant
Not available.

Snow Depth

Station Depth Elevation

Earthquake Activity

City Distance Mag. Time & Date
Minimum magnitude displayed is 2.5.

Coastal Water Temperatures

Place Temperature

Stations

Nearby Weather Stations

Station Location Temp. Windchill Dew Point Humidity Wind Precip. Elev Updated Type
                   

Watches & Warnings

Small Craft for Rough Bar Advisory
Issued: 2:57 PM PST Jan. 18, 2017 – National Weather Service

... Small Craft Advisory for rough bar now in effect until 4 PM
PST Thursday...

* in the Main Channel...

* general seas... 14 to 16 ft this afternoon... decreasing to 12 to
14 ft tonight and Thursday.

* First Ebb... around 915 PM this evening. Seas near 17 ft with
breakers.

* Second Ebb... around 10 am Thursday morning. Seas near 17 ft with
breakers.

Precautionary/preparedness actions...

A Small Craft Advisory for rough bar means that wave conditions
are expected to be hazardous to small craft in or near Harbor
entrances.